createdAt,value
2023-02-08T00:00:11.363Z,77.21
2023-02-08T00:02:40.218Z,76.29
2023-02-08T00:05:09.489Z,76.02
2023-02-08T00:07:38.245Z,76.73
2023-02-08T00:10:08.405Z,76.32
2023-02-08T00:12:37.263Z,75.30
2023-02-08T00:15:08.635Z,74.75
2023-02-08T00:17:42.978Z,74.16
2023-02-08T00:20:13.645Z,73.88
2023-02-08T00:22:42.529Z,75.18
2023-02-08T00:25:11.725Z,75.51
2023-02-08T00:27:40.629Z,74.88
2023-02-08T00:30:12.422Z,75.23
2023-02-08T00:32:41.152Z,75.50
2023-02-08T00:35:10.119Z,74.95
2023-02-08T00:37:38.916Z,74.40
2023-02-08T00:40:08.895Z,73.78
2023-02-08T00:42:37.819Z,74.93
2023-02-08T00:45:07.560Z,74.05
2023-02-08T00:47:37.883Z,73.64
2023-02-08T00:50:08.073Z,73.90
2023-02-08T00:52:38.761Z,74.61
2023-02-08T00:55:09.958Z,74.13
2023-02-08T00:57:38.776Z,75.64
2023-02-08T01:00:09.679Z,75.56
2023-02-08T01:02:41.122Z,74.39
2023-02-08T01:05:10.394Z,74.24
2023-02-08T01:07:39.721Z,75.31
2023-02-08T01:10:13.009Z,75.83
2023-02-08T01:12:44.935Z,75.59
2023-02-08T01:15:13.665Z,75.40
2023-02-08T01:17:44.191Z,76.13
2023-02-08T01:20:13.597Z,74.51
2023-02-08T01:22:42.308Z,75.26
2023-02-08T01:25:11.310Z,75.60
2023-02-08T01:27:40.094Z,75.14
2023-02-08T01:30:10.520Z,73.99
2023-02-08T01:32:42.779Z,74.84
2023-02-08T01:35:11.535Z,76.04
2023-02-08T01:37:40.259Z,74.58
2023-02-08T01:40:10.669Z,74.20
2023-02-08T01:42:39.526Z,74.49
2023-02-08T01:45:29.925Z,74.23
2023-02-08T01:48:13.114Z,74.39
2023-02-08T01:50:53.146Z,75.17
2023-02-08T01:53:23.911Z,75.74
2023-02-08T01:55:58.828Z,75.69
2023-02-08T01:58:33.414Z,75.59
2023-02-08T02:01:03.428Z,74.20
2023-02-08T02:03:35.139Z,73.93
2023-02-08T02:06:12.233Z,74.37
2023-02-08T02:08:49.708Z,75.38
2023-02-08T02:11:19.649Z,75.25
2023-02-08T02:13:51.201Z,75.11
2023-02-08T02:16:20.334Z,75.41
2023-02-08T02:18:50.648Z,74.85
2023-02-08T02:21:51.958Z,73.94
2023-02-08T02:25:13.443Z,73.28
2023-02-08T02:28:06.691Z,74.52
2023-02-08T02:31:22.516Z,73.35
2023-02-08T02:34:06.326Z,74.66
2023-02-08T02:36:51.805Z,74.37
2023-02-08T02:39:32.958Z,73.44
2023-02-08T02:42:32.467Z,74.63
2023-02-08T02:45:12.381Z,75.24
2023-02-08T02:47:53.297Z,74.18
2023-02-08T02:50:32.462Z,75.05
2023-02-08T02:53:09.216Z,75.15
2023-02-08T02:55:47.331Z,74.16
2023-02-08T02:58:19.220Z,73.92
2023-02-08T03:00:55.293Z,73.16
2023-02-08T03:03:28.617Z,74.22
2023-02-08T03:06:04.397Z,74.40
2023-02-08T03:09:26.645Z,75.44
2023-02-08T03:12:09.754Z,75.26
2023-02-08T03:14:53.233Z,75.19
2023-02-08T03:17:40.587Z,75.24
2023-02-08T03:20:13.153Z,73.87
2023-02-08T03:22:55.671Z,73.71
2023-02-08T03:25:34.167Z,75.14
2023-02-08T03:28:13.874Z,75.93
2023-02-08T03:31:04.814Z,75.12
2023-02-08T03:33:44.668Z,74.81
2023-02-08T03:36:25.117Z,74.54
2023-02-08T03:38:57.634Z,75.55
2023-02-08T03:41:34.392Z,76.02
2023-02-08T03:44:10.788Z,74.65
2023-02-08T03:46:45.668Z,73.82
2023-02-08T03:49:21.898Z,73.22
2023-02-08T03:51:52.404Z,73.26
2023-02-08T03:54:27.426Z,73.09
2023-02-08T03:57:08.168Z,72.66
2023-02-08T03:59:44.447Z,73.66
2023-02-08T04:02:20.157Z,74.38
2023-02-08T04:04:53.375Z,75.14
2023-02-08T04:07:22.566Z,75.20
2023-02-08T04:09:52.702Z,73.85
2023-02-08T04:12:22.659Z,74.32
2023-02-08T04:14:51.373Z,74.76
2023-02-08T04:17:20.198Z,73.85
2023-02-08T04:19:48.945Z,73.37
2023-02-08T04:22:17.656Z,72.96
2023-02-08T04:24:46.510Z,72.44
2023-02-08T04:27:17.057Z,73.15
2023-02-08T04:29:45.860Z,74.45
2023-02-08T04:32:14.805Z,74.17
2023-02-08T04:34:43.707Z,73.15
2023-02-08T04:37:12.737Z,73.16
2023-02-08T04:39:41.355Z,72.71
2023-02-08T04:42:10.531Z,72.60
2023-02-08T04:44:40.914Z,72.18
2023-02-08T04:47:10.148Z,72.42
2023-02-08T04:49:39.619Z,72.15
2023-02-08T04:52:11.550Z,72.23
2023-02-08T04:54:41.078Z,72.29
2023-02-08T04:57:13.937Z,71.77
2023-02-08T04:59:44.601Z,72.17
2023-02-08T05:02:13.580Z,72.26
2023-02-08T05:04:43.399Z,73.60
2023-02-08T05:07:12.163Z,73.04
2023-02-08T05:09:40.967Z,73.01
2023-02-08T05:12:10.071Z,72.44
2023-02-08T05:14:40.690Z,72.16
2023-02-08T05:17:11.161Z,72.77
2023-02-08T05:19:40.063Z,72.11
2023-02-08T05:22:09.108Z,72.34
2023-02-08T05:24:37.815Z,73.02
2023-02-08T05:27:06.614Z,73.06
2023-02-08T05:29:35.926Z,72.89
2023-02-08T05:32:05.284Z,72.57
2023-02-08T05:34:35.493Z,72.73
2023-02-08T05:37:06.409Z,74.19
2023-02-08T05:39:35.604Z,74.14
2023-02-08T05:42:05.155Z,74.29
2023-02-08T05:44:34.568Z,73.65
2023-02-08T05:47:04.102Z,74.37
2023-02-08T05:49:34.373Z,73.45
2023-02-08T05:52:03.239Z,72.68
2023-02-08T05:54:31.944Z,72.01
2023-02-08T05:57:00.801Z,71.97
2023-02-08T05:59:29.983Z,71.65
2023-02-08T06:01:58.730Z,71.72
2023-02-08T06:05:17.256Z,71.35
2023-02-08T06:07:58.342Z,71.47
2023-02-08T06:10:32.588Z,71.82
2023-02-08T06:13:03.573Z,72.83
2023-02-08T06:15:32.649Z,73.33
2023-02-08T06:18:02.486Z,72.78
2023-02-08T06:20:32.700Z,72.75
2023-02-08T06:23:01.690Z,73.38
2023-02-08T06:25:30.469Z,74.17
2023-02-08T06:28:17.934Z,74.07
2023-02-08T06:31:35.977Z,73.97
2023-02-08T06:34:05.994Z,73.02
2023-02-08T06:36:36.248Z,72.13
2023-02-08T06:39:05.121Z,71.91
2023-02-08T06:41:48.705Z,71.55
2023-02-08T06:44:17.665Z,71.92
2023-02-08T06:46:46.630Z,71.48
2023-02-08T06:49:15.601Z,70.68
2023-02-08T06:51:45.805Z,70.88
2023-02-08T06:54:15.644Z,71.13
2023-02-08T06:56:44.491Z,71.81
2023-02-08T06:59:13.153Z,71.16
2023-02-08T07:01:41.888Z,71.83
2023-02-08T07:04:10.614Z,72.94
2023-02-08T07:06:39.300Z,72.71
2023-02-08T07:09:09.575Z,72.87
2023-02-08T07:11:38.244Z,73.04
2023-02-08T07:14:06.946Z,72.49
2023-02-08T07:16:35.665Z,71.86
2023-02-08T07:19:04.845Z,71.47
2023-02-08T07:21:33.534Z,71.36
2023-02-08T07:24:02.216Z,71.15
2023-02-08T07:26:32.238Z,70.58
2023-02-08T07:29:01.385Z,70.92
2023-02-08T07:31:30.244Z,70.71
2023-02-08T07:34:00.788Z,70.82
2023-02-08T07:36:29.429Z,70.86
2023-02-08T07:38:58.143Z,70.98
2023-02-08T07:41:26.809Z,70.90
2023-02-08T07:43:56.864Z,70.95
2023-02-08T07:46:25.600Z,70.85
2023-02-08T07:48:54.402Z,71.09
2023-02-08T07:51:23.160Z,71.03
2023-02-08T07:53:52.101Z,71.00
2023-02-08T07:56:20.891Z,70.78
2023-02-08T07:58:49.637Z,70.85
2023-02-08T08:01:22.630Z,70.79
2023-02-08T08:03:52.893Z,70.95
2023-02-08T08:06:24.005Z,71.02
2023-02-08T08:08:53.801Z,71.23
2023-02-08T08:11:23.607Z,71.50
2023-02-08T08:13:53.479Z,71.67
2023-02-08T08:16:23.698Z,71.86
2023-02-08T08:18:52.457Z,71.95
2023-02-08T08:21:21.183Z,72.10
2023-02-08T08:23:49.861Z,72.61
2023-02-08T08:26:22.446Z,72.57
2023-02-08T08:28:51.104Z,72.85
2023-02-08T08:31:23.951Z,72.78
2023-02-08T08:33:52.748Z,72.94
2023-02-08T08:36:21.492Z,73.23
2023-02-08T08:38:50.144Z,73.54
2023-02-08T08:41:19.317Z,73.58
2023-02-08T08:43:48.056Z,73.87
2023-02-08T08:46:17.914Z,74.70
2023-02-08T08:48:48.372Z,74.64
2023-02-08T08:51:17.157Z,74.77
2023-02-08T08:53:45.808Z,75.33
2023-02-08T08:56:14.470Z,75.10
2023-02-08T08:58:43.651Z,75.82
2023-02-08T09:01:14.118Z,76.47
2023-02-08T09:03:42.976Z,76.85
2023-02-08T09:06:13.068Z,76.94
2023-02-08T09:08:41.760Z,77.23
2023-02-08T09:11:13.266Z,77.46
2023-02-08T09:13:43.082Z,77.84
2023-02-08T09:16:15.447Z,78.13
2023-02-08T09:18:45.015Z,78.01
2023-02-08T09:21:18.548Z,77.41
2023-02-08T09:23:47.695Z,76.94
2023-02-08T09:26:19.606Z,77.11
2023-02-08T09:28:48.582Z,76.90
2023-02-08T09:31:23.578Z,76.46
2023-02-08T09:33:55.456Z,75.65
2023-02-08T09:36:29.807Z,75.72
2023-02-08T09:39:02.212Z,74.98
2023-02-08T09:41:54.827Z,73.73
2023-02-08T09:44:33.005Z,74.09
2023-02-08T09:47:11.840Z,74.15
2023-02-08T09:49:50.188Z,75.15
2023-02-08T09:52:26.480Z,75.33
2023-02-08T09:55:03.870Z,75.55
2023-02-08T09:57:37.471Z,76.48
2023-02-08T10:00:16.284Z,76.06
2023-02-08T10:02:48.860Z,76.13
2023-02-08T10:05:23.572Z,76.37
2023-02-08T10:07:54.856Z,76.18
2023-02-08T10:10:39.216Z,74.69
2023-02-08T10:13:40.793Z,73.65
2023-02-08T10:16:22.712Z,73.34
2023-02-08T10:19:02.553Z,72.61
2023-02-08T10:21:50.832Z,73.18
2023-02-08T10:25:18.480Z,73.33
2023-02-08T10:28:09.120Z,73.35
2023-02-08T10:30:49.648Z,72.90
2023-02-08T10:33:27.943Z,72.09
2023-02-08T10:35:58.603Z,72.25
2023-02-08T10:38:45.277Z,73.15
2023-02-08T10:41:22.842Z,72.69
2023-02-08T10:44:04.632Z,72.70
2023-02-08T10:46:41.971Z,72.56
2023-02-08T10:49:21.694Z,71.30
2023-02-08T10:51:50.694Z,71.75
2023-02-08T10:54:19.555Z,72.35
2023-02-08T10:56:57.555Z,71.37
2023-02-08T10:59:32.979Z,71.23
2023-02-08T11:02:01.725Z,71.65
2023-02-08T11:04:30.697Z,70.85
2023-02-08T11:06:59.500Z,70.89
2023-02-08T11:09:31.010Z,70.73
2023-02-08T11:12:03.475Z,70.48
2023-02-08T11:14:47.221Z,69.19
2023-02-08T11:17:29.920Z,68.85
2023-02-08T11:20:01.051Z,69.23
2023-02-08T11:22:34.482Z,68.60
2023-02-08T11:25:06.219Z,68.39
2023-02-08T11:27:45.022Z,68.46
2023-02-08T11:30:25.162Z,68.37
2023-02-08T11:33:23.319Z,67.93
2023-02-08T11:36:06.524Z,67.96
2023-02-08T11:38:37.975Z,68.39
2023-02-08T11:41:19.098Z,67.46
2023-02-08T11:44:02.887Z,66.98
2023-02-08T11:46:37.428Z,67.01
2023-02-08T11:49:06.476Z,66.52
2023-02-08T11:51:40.213Z,67.29
2023-02-08T11:54:34.484Z,66.61
2023-02-08T11:57:12.153Z,67.12
2023-02-08T11:59:40.924Z,66.86
2023-02-08T12:02:32.471Z,66.70
2023-02-08T12:05:01.588Z,66.54
2023-02-08T12:07:58.159Z,66.79
2023-02-08T12:10:47.585Z,66.20
2023-02-08T12:13:56.708Z,66.23
2023-02-08T12:16:52.408Z,65.44
2023-02-08T12:20:15.883Z,63.98
2023-02-08T12:22:57.058Z,64.13
2023-02-08T12:25:39.529Z,63.73
2023-02-08T12:28:20.365Z,64.11
2023-02-08T12:31:04.500Z,63.99
2023-02-08T12:33:51.485Z,64.11
2023-02-08T12:36:38.684Z,64.62
2023-02-08T12:39:57.384Z,63.57
2023-02-08T12:42:49.355Z,64.07
2023-02-08T12:46:00.631Z,63.40
2023-02-08T12:48:56.534Z,64.21
2023-02-08T12:51:42.405Z,64.09
2023-02-08T12:54:15.427Z,64.19
2023-02-08T12:57:01.614Z,63.63
2023-02-08T12:59:40.193Z,63.95
2023-02-08T13:02:20.562Z,64.89
2023-02-08T13:04:55.131Z,65.08
2023-02-08T13:07:32.858Z,66.21
2023-02-08T13:10:13.358Z,65.75
2023-02-08T13:12:53.305Z,65.57
2023-02-08T13:15:31.020Z,66.11
2023-02-08T13:18:06.895Z,65.74
2023-02-08T13:20:44.818Z,65.59
2023-02-08T13:23:27.275Z,64.88
2023-02-08T13:26:02.067Z,64.96
2023-02-08T13:28:31.183Z,66.10
2023-02-08T13:31:08.738Z,66.06
2023-02-08T13:34:00.792Z,65.48
2023-02-08T13:36:36.007Z,65.27
2023-02-08T13:39:24.126Z,65.58
2023-02-08T13:41:56.707Z,65.31
2023-02-08T13:44:33.975Z,65.95
2023-02-08T13:47:04.412Z,65.36
2023-02-08T13:50:00.974Z,65.02
2023-02-08T13:52:51.084Z,65.39
2023-02-08T13:55:57.404Z,65.70
2023-02-08T13:59:06.890Z,65.13
2023-02-08T14:01:37.862Z,64.89
2023-02-08T14:04:35.146Z,64.50
2023-02-08T14:07:32.943Z,65.38
2023-02-08T14:10:32.014Z,65.02
2023-02-08T14:13:09.697Z,65.95
2023-02-08T14:15:41.098Z,65.68
2023-02-08T14:18:28.299Z,65.64
2023-02-08T14:21:04.537Z,65.19
2023-02-08T14:23:40.216Z,63.90
2023-02-08T14:26:24.222Z,65.70
2023-02-08T14:29:00.262Z,65.36
2023-02-08T14:31:43.526Z,64.63
2023-02-08T14:34:34.885Z,64.50
2023-02-08T14:37:27.676Z,64.22
2023-02-08T14:40:48.684Z,64.11
2023-02-08T14:43:34.386Z,64.51
2023-02-08T14:46:46.220Z,63.99
2023-02-08T14:49:19.270Z,63.96
2023-02-08T14:51:56.275Z,64.21
2023-02-08T14:54:33.880Z,63.77
2023-02-08T14:57:14.968Z,63.13
2023-02-08T14:59:45.461Z,62.66
2023-02-08T15:02:23.509Z,62.58
2023-02-08T15:04:52.624Z,62.36
2023-02-08T15:07:36.357Z,62.58
2023-02-08T15:10:07.750Z,62.69
2023-02-08T15:12:41.195Z,62.45
2023-02-08T15:15:27.487Z,62.78
2023-02-08T15:18:02.363Z,62.84
2023-02-08T15:20:37.792Z,62.92
2023-02-08T15:23:20.578Z,62.98
2023-02-08T15:25:59.049Z,62.91
2023-02-08T15:28:30.933Z,63.34
2023-02-08T15:31:06.004Z,62.94
2023-02-08T15:34:03.363Z,63.34
2023-02-08T15:36:35.454Z,63.62
2023-02-08T15:39:12.726Z,64.33
2023-02-08T15:41:41.497Z,64.73
2023-02-08T15:44:20.150Z,64.30
2023-02-08T15:49:28.024Z,64.70
2023-02-08T15:51:58.172Z,65.18
2023-02-08T15:54:27.707Z,65.75
2023-02-08T15:57:01.008Z,65.76
2023-02-08T15:59:36.404Z,66.24
2023-02-08T16:02:23.018Z,67.37
2023-02-08T16:04:53.449Z,67.91
2023-02-08T16:07:29.630Z,67.77
2023-02-08T16:09:59.970Z,68.09
2023-02-08T16:12:31.434Z,67.75
2023-02-08T16:15:00.181Z,68.45
2023-02-08T16:17:43.154Z,68.98
2023-02-08T16:20:33.349Z,69.34
2023-02-08T16:23:05.062Z,69.26
2023-02-08T16:25:44.229Z,69.89
2023-02-08T16:28:29.134Z,69.50
2023-02-08T16:31:01.522Z,69.70
2023-02-08T16:33:32.503Z,69.90
2023-02-08T16:36:02.903Z,69.79
2023-02-08T16:38:34.949Z,70.13
2023-02-08T16:41:13.203Z,70.09
2023-02-08T16:43:44.944Z,71.59
2023-02-08T16:46:26.844Z,70.99
2023-02-08T16:48:58.069Z,71.42
2023-02-08T16:51:31.770Z,72.33
2023-02-08T17:01:58.523Z,73.19
2023-02-08T17:04:29.331Z,73.57
2023-02-08T17:06:59.477Z,73.31
2023-02-08T17:09:28.188Z,73.54
2023-02-08T17:11:56.935Z,72.67
2023-02-08T17:14:25.616Z,72.80
2023-02-08T17:16:54.328Z,72.28
2023-02-08T17:19:25.252Z,71.91
2023-02-08T17:21:55.058Z,71.63
2023-02-08T17:24:24.170Z,72.82
2023-02-08T17:26:52.852Z,72.70
2023-02-08T17:29:21.630Z,73.52
2023-02-08T17:31:50.825Z,73.17
2023-02-08T17:34:19.681Z,72.79
2023-02-08T17:36:49.937Z,72.67
2023-02-08T17:39:20.895Z,72.75
2023-02-08T17:41:49.934Z,73.65
2023-02-08T17:44:19.173Z,73.53
2023-02-08T17:46:52.771Z,73.23
2023-02-08T17:49:22.426Z,74.00
2023-02-08T17:51:52.624Z,73.63
2023-02-08T17:54:21.793Z,73.11
2023-02-08T17:56:56.662Z,72.81
2023-02-08T17:59:25.888Z,72.67
2023-02-08T18:01:55.405Z,73.04
2023-02-08T18:04:26.646Z,72.94
2023-02-08T18:06:57.434Z,73.70
2023-02-08T18:09:26.494Z,73.36
2023-02-08T18:11:55.239Z,72.88
2023-02-08T18:14:24.664Z,72.77
2023-02-08T18:16:53.879Z,72.43
2023-02-08T18:19:24.655Z,72.33
2023-02-08T18:21:53.771Z,72.72
2023-02-08T18:24:24.179Z,74.16
2023-02-08T18:26:53.569Z,75.18
2023-02-08T18:29:25.811Z,75.48
2023-02-08T18:31:54.841Z,75.14
2023-02-08T18:34:24.107Z,74.15
2023-02-08T18:36:54.276Z,74.30
2023-02-08T18:39:24.932Z,73.42
2023-02-08T18:41:55.577Z,73.85
2023-02-08T18:44:28.553Z,73.81
2023-02-08T18:46:58.722Z,73.40
2023-02-08T18:49:30.699Z,74.15
2023-02-08T18:52:09.117Z,75.62
2023-02-08T18:54:41.571Z,75.99
2023-02-08T18:57:11.507Z,76.34
2023-02-08T18:59:41.182Z,76.50
2023-02-08T19:02:26.486Z,76.07
2023-02-08T19:04:55.630Z,74.53
2023-02-08T19:07:24.713Z,74.62
2023-02-08T19:09:55.631Z,74.04
2023-02-08T19:12:24.617Z,74.76
2023-02-08T19:14:53.487Z,75.95
2023-02-08T19:17:22.726Z,76.65
2023-02-08T19:19:52.252Z,76.08
2023-02-08T19:22:23.359Z,76.33
2023-02-08T19:24:53.594Z,76.93
2023-02-08T19:27:24.209Z,76.35
2023-02-08T19:29:56.473Z,75.80
2023-02-08T19:32:25.860Z,76.44
2023-02-08T19:34:58.550Z,76.80
2023-02-08T19:37:28.103Z,76.97
2023-02-08T19:39:57.738Z,75.88
2023-02-08T19:42:30.437Z,75.25
2023-02-08T19:45:00.962Z,74.72
2023-02-08T19:47:50.263Z,74.32
2023-02-08T19:50:21.977Z,73.79
2023-02-08T19:52:51.804Z,74.09
2023-02-08T19:55:23.723Z,75.17
2023-02-08T19:57:54.595Z,75.61
2023-02-08T20:00:43.368Z,76.25
2023-02-08T20:03:21.442Z,76.13
2023-02-08T20:05:57.054Z,75.54
2023-02-08T20:08:27.474Z,74.46
2023-02-08T20:10:57.406Z,74.19
2023-02-08T20:13:28.246Z,74.22
2023-02-08T20:16:01.153Z,74.26
2023-02-08T20:18:31.580Z,73.89
2023-02-08T20:21:06.130Z,73.74
2023-02-08T20:23:35.729Z,73.70
2023-02-08T20:26:10.246Z,73.42
2023-02-08T20:28:46.982Z,73.27
2023-02-08T20:31:19.680Z,73.46
2023-02-08T20:33:50.314Z,75.23
2023-02-08T20:36:25.929Z,76.00
2023-02-08T20:38:58.373Z,74.93
2023-02-08T20:41:33.286Z,75.94
2023-02-08T20:44:04.107Z,76.68
2023-02-08T20:46:36.956Z,76.27
2023-02-08T20:49:08.363Z,75.73
2023-02-08T20:51:37.563Z,75.07
2023-02-08T20:54:06.681Z,75.20
2023-02-08T20:56:38.230Z,76.41
2023-02-08T20:59:13.758Z,75.89
2023-02-08T21:01:43.997Z,74.75
2023-02-08T21:04:13.213Z,74.37
2023-02-08T21:06:46.063Z,75.83
2023-02-08T21:09:20.337Z,75.55
2023-02-08T21:11:50.320Z,75.18
2023-02-08T21:14:23.720Z,74.63
2023-02-08T21:16:56.072Z,73.95
2023-02-08T21:19:26.287Z,73.93
2023-02-08T21:21:58.124Z,73.97
2023-02-08T21:24:28.756Z,74.23
2023-02-08T21:26:58.491Z,75.17
2023-02-08T21:29:29.667Z,75.66
2023-02-08T21:31:58.813Z,75.48
2023-02-08T21:34:27.887Z,74.35
2023-02-08T21:36:56.650Z,73.82
2023-02-08T21:39:25.500Z,73.37
2023-02-08T21:41:55.528Z,73.12
2023-02-08T21:44:24.527Z,73.18
2023-02-08T21:46:54.672Z,73.33
2023-02-08T21:49:40.928Z,73.16
2023-02-08T21:52:28.232Z,73.64
2023-02-08T21:54:57.017Z,73.46
2023-02-08T21:57:28.901Z,73.52
2023-02-08T22:00:01.354Z,73.41
2023-02-08T22:02:32.080Z,73.17
2023-02-08T22:05:03.119Z,73.07
2023-02-08T22:07:42.288Z,73.09
2023-02-08T22:10:14.431Z,72.74
2023-02-08T22:12:43.210Z,72.51
2023-02-08T22:15:14.983Z,72.97
2023-02-08T22:17:45.291Z,73.08
2023-02-08T22:20:15.884Z,73.21
2023-02-08T22:22:45.730Z,73.44
2023-02-08T22:25:14.935Z,73.90
2023-02-08T22:27:43.635Z,73.92
2023-02-08T22:30:16.668Z,73.96
2023-02-08T22:32:50.320Z,74.59
2023-02-08T22:35:21.249Z,74.29
2023-02-08T22:37:50.132Z,74.42
2023-02-08T22:40:19.047Z,74.70
2023-02-08T22:42:47.881Z,74.93
2023-02-08T22:45:16.587Z,75.10
2023-02-08T22:47:46.156Z,75.34
2023-02-08T22:50:16.723Z,75.41
2023-02-08T22:52:45.422Z,75.28
2023-02-08T22:55:14.090Z,75.80
2023-02-08T22:57:43.639Z,75.64
2023-02-08T23:00:17.137Z,75.60
2023-02-08T23:02:46.025Z,75.43
2023-02-08T23:05:16.112Z,75.61
2023-02-08T23:07:44.842Z,76.25
2023-02-08T23:10:14.051Z,76.36
2023-02-08T23:12:42.709Z,76.03
2023-02-08T23:15:12.811Z,75.96
2023-02-08T23:17:41.537Z,76.02
2023-02-08T23:20:11.639Z,75.86
2023-02-08T23:22:42.308Z,75.61
2023-02-08T23:25:11.348Z,75.50
2023-02-08T23:27:40.127Z,75.57
2023-02-08T23:30:10.451Z,75.12
2023-02-08T23:32:39.363Z,73.19
2023-02-08T23:35:10.676Z,74.09
2023-02-08T23:37:41.037Z,74.18
2023-02-08T23:40:11.875Z,74.24
2023-02-08T23:42:40.656Z,74.16
2023-02-08T23:45:10.813Z,73.65
2023-02-08T23:47:40.401Z,73.55
2023-02-08T23:50:11.020Z,73.57
2023-02-08T23:52:41.057Z,73.49
2023-02-08T23:55:10.180Z,73.48
2023-02-08T23:57:39.800Z,73.30
